Time;durP1;ratioP1;P1;durP2;ratioP2;P2;SDS_P1;SDS_P2;PMS_P1;PMS_P2;Temp;Humidity;BMP_temperature;BMP_pressure;BME280_temperature;BME280_humidity;BME280_pressure;Samples;Min_cycle;Max_cycle;Signal;HPM_P1;HPM_P2
2021/09/21 00:00:47;;;;;;;5.43;4.43;;;13.70;99.90;;;;;;4972989;28;20193;-75
2021/09/21 00:03:13;;;;;;;5.53;3.92;;;13.60;99.90;;;;;;4973190;28;20190;-77
2021/09/21 00:05:39;;;;;;;4.18;3.75;;;13.70;99.90;;;;;;4972757;28;20711;-75
2021/09/21 00:08:05;;;;;;;6.28;4.10;;;13.70;99.90;;;;;;4972049;28;20178;-75
2021/09/21 00:10:32;;;;;;;4.05;3.67;;;13.70;99.90;;;;;;4973248;28;20186;-75
2021/09/21 00:12:59;;;;;;;3.75;3.45;;;13.70;99.90;;;;;;4976425;28;20232;-75
2021/09/21 00:15:25;;;;;;;5.43;3.40;;;13.60;99.90;;;;;;4976408;28;20205;-76
2021/09/21 00:17:51;;;;;;;4.22;3.45;;;13.60;99.90;;;;;;4978474;28;20225;-75
2021/09/21 00:20:18;;;;;;;4.88;3.08;;;13.60;99.90;;;;;;4977777;28;20174;-75
2021/09/21 00:22:44;;;;;;;6.97;3.70;;;13.60;99.90;;;;;;4978702;28;20170;-74
2021/09/21 00:25:12;;;;;;;9.90;3.30;;;13.60;99.90;;;;;;4977573;28;20658;-76
2021/09/21 00:27:39;;;;;;;3.55;3.25;;;13.50;99.90;;;;;;4977035;28;20173;-75
2021/09/21 00:30:06;;;;;;;5.88;3.65;;;13.40;99.90;;;;;;4975452;28;20277;-78
2021/09/21 00:32:32;;;;;;;9.63;4.13;;;13.20;99.90;;;;;;4976192;28;20184;-75
2021/09/21 00:34:58;;;;;;;4.55;3.42;;;13.20;99.90;;;;;;4976166;28;20233;-75
2021/09/21 00:37:24;;;;;;;4.18;3.38;;;13.10;99.90;;;;;;4976433;28;20252;-75
2021/09/21 00:39:50;;;;;;;7.60;4.05;;;13.20;99.90;;;;;;4976059;28;20178;-75
2021/09/21 00:42:23;;;;;;;4.82;3.40;;;13.20;99.90;;;;;;4976059;28;20532;-75
2021/09/21 00:44:55;;;;;;;6.95;4.55;;;13.30;99.90;;;;;;4974831;28;20222;-74
2021/09/21 00:47:22;;;;;;;5.82;3.97;;;13.30;99.90;;;;;;4975895;28;20220;-75
2021/09/21 00:49:48;;;;;;;3.38;3.08;;;13.20;99.90;;;;;;4976135;28;20542;-75
2021/09/21 00:52:13;;;;;;;4.13;3.83;;;13.20;99.90;;;;;;4976445;28;20181;-75
2021/09/21 00:54:39;;;;;;;3.65;3.33;;;13.30;99.90;;;;;;4976986;28;20213;-75
2021/09/21 00:57:05;;;;;;;4.45;3.47;;;13.20;99.90;;;;;;4976966;28;20205;-75
2021/09/21 00:59:31;;;;;;;7.68;3.72;;;13.30;99.90;;;;;;4975852;28;20565;-76
2021/09/21 01:01:56;;;;;;;4.78;3.90;;;13.10;99.90;;;;;;4975789;28;20200;-76
2021/09/21 01:04:22;;;;;;;8.70;3.92;;;12.90;99.90;;;;;;4976022;28;20256;-75
2021/09/21 01:06:48;;;;;;;5.35;4.03;;;12.90;99.90;;;;;;4975948;28;20253;-76
2021/09/21 01:09:21;;;;;;;4.07;3.78;;;13.10;99.90;;;;;;4975878;28;20209;-74
2021/09/21 01:11:50;;;;;;;6.55;3.80;;;13.10;99.90;;;;;;4975553;28;20213;-74
2021/09/21 01:14:16;;;;;;;3.97;3.58;;;12.80;99.90;;;;;;4975525;28;20653;-74
2021/09/21 01:16:42;;;;;;;3.70;3.28;;;12.70;99.90;;;;;;4975338;28;20190;-74
2021/09/21 01:19:11;;;;;;;3.67;3.40;;;12.70;99.90;;;;;;4975487;28;20509;-73
2021/09/21 01:21:38;;;;;;;6.55;3.75;;;12.70;99.90;;;;;;4974830;28;20194;-74
2021/09/21 01:24:05;;;;;;;4.32;3.92;;;12.80;99.90;;;;;;4975585;28;20523;-73
2021/09/21 01:26:30;;;;;;;4.45;4.13;;;12.90;99.90;;;;;;4975592;28;20173;-74
2021/09/21 01:28:56;;;;;;;5.93;4.28;;;12.80;99.90;;;;;;4975320;28;20166;-75
2021/09/21 01:31:22;;;;;;;8.43;5.25;;;12.90;99.90;;;;;;4975774;28;20197;-74
2021/09/21 01:33:49;;;;;;;5.80;4.53;;;13.00;99.90;;;;;;4975484;28;20213;-75
2021/09/21 01:36:21;;;;;;;4.85;4.45;;;13.00;99.90;;;;;;4975162;28;20226;-74
2021/09/21 01:38:47;;;;;;;7.75;4.32;;;12.90;99.90;;;;;;4974253;28;20516;-74
2021/09/21 01:41:13;;;;;;;6.45;5.03;;;12.90;99.90;;;;;;4975394;28;20225;-74
2021/09/21 01:43:42;;;;;;;7.78;4.55;;;12.90;99.90;;;;;;4975087;28;20176;-76
2021/09/21 01:46:08;;;;;;;6.07;4.07;;;13.00;99.90;;;;;;4975263;28;20178;-75
2021/09/21 01:48:34;;;;;;;10.48;4.57;;;12.80;99.90;;;;;;4974877;28;20178;-75
2021/09/21 01:51:02;;;;;;;5.47;4.97;;;12.90;99.90;;;;;;4974896;28;20193;-75
2021/09/21 01:58:47;;;;;;;7.85;4.75;;;12.20;99.90;;;;;;4975107;28;20236;-75
2021/09/21 02:01:18;;;;;;;13.05;5.15;;;12.40;99.90;;;;;;4974795;28;20190;-74
2021/09/21 02:03:44;;;;;;;7.30;4.30;;;12.30;99.90;;;;;;4974198;28;20174;-74
2021/09/21 02:06:10;;;;;;;7.18;4.85;;;12.10;99.90;;;;;;4974413;28;20238;-75
2021/09/21 02:08:36;;;;;;;6.72;4.97;;;11.90;99.90;;;;;;4974869;28;20178;-75
2021/09/21 02:11:02;;;;;;;5.30;4.40;;;12.10;99.90;;;;;;4974431;28;20186;-74
2021/09/21 02:13:28;;;;;;;6.30;4.32;;;12.30;99.90;;;;;;4974519;28;20634;-75
2021/09/21 02:15:54;;;;;;;5.60;5.03;;;12.20;99.90;;;;;;4974057;28;20209;-75
2021/09/21 02:18:19;;;;;;;5.85;3.80;;;12.30;99.90;;;;;;4973350;28;20181;-75
2021/09/21 02:20:45;;;;;;;5.80;4.63;;;12.10;99.90;;;;;;4974315;28;20189;-75
2021/09/21 02:23:11;;;;;;;8.15;4.75;;;12.10;99.90;;;;;;4974123;28;20174;-75
2021/09/21 02:25:37;;;;;;;8.02;4.75;;;12.10;99.90;;;;;;4974374;28;20681;-75
2021/09/21 02:28:03;;;;;;;5.57;5.05;;;12.30;99.90;;;;;;4973250;28;20170;-75
2021/09/21 02:30:28;;;;;;;5.30;4.70;;;12.10;99.90;;;;;;4974281;28;20228;-75
2021/09/21 02:32:54;;;;;;;4.72;4.32;;;12.00;99.90;;;;;;4974642;28;20535;-75
2021/09/21 02:35:20;;;;;;;9.27;4.68;;;12.00;99.90;;;;;;4974697;28;20688;-75
2021/09/21 02:37:47;;;;;;;4.53;4.13;;;12.10;99.90;;;;;;4974263;28;20285;-75
2021/09/21 02:40:13;;;;;;;9.02;4.53;;;12.30;99.90;;;;;;4974280;28;20166;-77
2021/09/21 02:42:40;;;;;;;7.80;4.72;;;12.40;99.90;;;;;;4973850;28;20209;-76
2021/09/21 02:45:07;;;;;;;9.13;5.03;;;12.30;99.90;;;;;;4974538;28;20232;-75
2021/09/21 02:47:33;;;;;;;5.22;4.10;;;12.20;99.90;;;;;;4974563;28;20204;-76
2021/09/21 02:49:58;;;;;;;5.13;4.65;;;12.20;99.90;;;;;;4973989;28;20639;-76
2021/09/21 02:52:24;;;;;;;4.68;4.28;;;12.20;99.90;;;;;;4973756;28;20269;-75
2021/09/21 02:54:49;;;;;;;4.88;4.45;;;12.30;99.90;;;;;;4974064;28;20201;-75
2021/09/21 02:57:15;;;;;;;13.60;5.57;;;12.30;99.90;;;;;;4974042;28;20185;-75
2021/09/21 02:59:41;;;;;;;7.07;5.20;;;12.40;99.90;;;;;;4973672;28;20184;-75
2021/09/21 03:02:06;;;;;;;5.50;4.97;;;12.40;99.90;;;;;;4973800;28;20194;-75
2021/09/21 03:04:36;;;;;;;4.47;4.07;;;12.40;99.90;;;;;;4973677;28;20173;-75
2021/09/21 03:07:14;;;;;;;7.75;5.82;;;12.40;99.90;;;;;;4973751;28;20668;-75
2021/09/21 03:17:28;;;;;;;8.27;4.93;;;12.10;99.90;;;;;;4973916;28;20600;-76
2021/09/21 03:19:58;;;;;;;5.53;5.03;;;12.30;99.90;;;;;;4973493;28;20257;-75
2021/09/21 03:22:25;;;;;;;7.82;4.97;;;12.50;99.90;;;;;;4973316;28;20193;-75
2021/09/21 03:24:52;;;;;;;5.38;4.88;;;12.40;99.90;;;;;;4973508;28;20166;-75
2021/09/21 03:27:18;;;;;;;5.38;4.82;;;12.40;99.90;;;;;;4973586;28;20186;-75
2021/09/21 03:29:43;;;;;;;5.82;5.18;;;12.40;99.90;;;;;;4973487;28;20185;-75
2021/09/21 03:32:09;;;;;;;6.15;5.05;;;12.40;99.90;;;;;;4972130;28;20286;-75
2021/09/21 03:34:37;;;;;;;6.25;5.50;;;12.50;99.90;;;;;;4973531;28;20264;-75
2021/09/21 03:37:08;;;;;;;7.03;4.72;;;12.60;99.90;;;;;;4973225;28;20571;-75
2021/09/21 03:39:35;;;;;;;18.50;5.65;;;12.50;99.90;;;;;;4973083;28;20657;-75
2021/09/21 03:42:01;;;;;;;10.88;4.88;;;12.30;99.90;;;;;;4973370;28;20677;-75
2021/09/21 03:44:27;;;;;;;6.50;4.75;;;12.20;99.90;;;;;;4973649;28;20200;-76
2021/09/21 03:46:54;;;;;;;7.55;4.80;;;12.20;99.90;;;;;;4978894;28;20169;-76
2021/09/21 03:49:20;;;;;;;4.97;4.47;;;12.10;99.90;;;;;;4977985;28;20166;-76
2021/09/21 03:51:46;;;;;;;9.18;5.90;;;12.00;99.90;;;;;;4977303;28;20221;-77
2021/09/21 03:54:12;;;;;;;11.55;6.88;;;12.10;99.90;;;;;;4975759;28;20170;-75
2021/09/21 03:56:39;;;;;;;10.50;5.60;;;12.10;99.90;;;;;;4977001;28;20205;-76
2021/09/21 03:59:05;;;;;;;5.50;5.00;;;12.30;99.90;;;;;;4976848;28;20257;-75
2021/09/21 04:01:31;;;;;;;6.30;5.65;;;12.40;99.90;;;;;;4976580;28;20678;-74
2021/09/21 04:03:57;;;;;;;7.13;5.50;;;12.30;99.90;;;;;;4976807;28;20166;-75
2021/09/21 04:06:23;;;;;;;6.00;5.43;;;12.40;99.90;;;;;;4976704;28;20220;-74
2021/09/21 04:08:49;;;;;;;6.95;5.13;;;12.20;99.90;;;;;;4976918;28;20178;-75
2021/09/21 04:11:15;;;;;;;7.88;6.20;;;12.10;99.90;;;;;;4975148;28;20190;-75
2021/09/21 04:13:41;;;;;;;6.68;5.57;;;12.00;99.90;;;;;;4975563;28;20221;-75
2021/09/21 04:16:06;;;;;;;7.78;5.85;;;12.00;99.90;;;;;;4976385;28;20224;-75
2021/09/21 04:18:32;;;;;;;7.00;6.15;;;12.20;99.90;;;;;;4976564;28;20201;-75
2021/09/21 04:20:58;;;;;;;8.40;5.90;;;12.30;99.90;;;;;;4976187;28;20196;-75
2021/09/21 04:23:23;;;;;;;8.07;6.43;;;12.30;99.90;;;;;;4976596;28;20220;-75
2021/09/21 04:25:49;;;;;;;8.88;5.95;;;12.30;99.90;;;;;;4976292;28;20586;-75
2021/09/21 04:28:15;;;;;;;5.95;5.25;;;12.20;99.90;;;;;;4976091;28;20166;-75
2021/09/21 04:30:43;;;;;;;7.43;5.93;;;12.10;99.90;;;;;;4976129;28;20200;-75
2021/09/21 04:33:09;;;;;;;6.30;5.70;;;12.10;99.90;;;;;;4976217;28;20169;-76
2021/09/21 04:35:37;;;;;;;7.28;6.00;;;12.10;99.90;;;;;;4976507;28;20666;-75
2021/09/21 04:38:02;;;;;;;7.80;6.03;;;12.20;99.90;;;;;;4976188;28;20622;-76
2021/09/21 04:40:28;;;;;;;5.90;5.35;;;12.10;99.90;;;;;;4975192;28;20208;-76
2021/09/21 04:42:54;;;;;;;10.23;6.10;;;11.80;99.90;;;;;;4976002;28;20170;-76
2021/09/21 04:45:19;;;;;;;8.20;5.70;;;11.90;99.90;;;;;;4976483;28;20257;-77
2021/09/21 04:47:45;;;;;;;7.78;5.93;;;11.80;99.90;;;;;;4976145;28;20561;-75
2021/09/21 04:50:11;;;;;;;6.40;5.85;;;11.80;99.90;;;;;;4975796;28;20200;-74
2021/09/21 04:52:37;;;;;;;8.77;6.45;;;11.80;99.90;;;;;;4976159;28;20166;-74
2021/09/21 04:55:03;;;;;;;10.00;6.25;;;11.80;99.90;;;;;;4975683;28;20252;-75
2021/09/21 04:57:29;;;;;;;7.90;5.93;;;12.00;99.90;;;;;;4974713;28;20190;-75
2021/09/21 04:59:54;;;;;;;7.80;5.45;;;12.10;99.90;;;;;;4976415;28;20684;-77
2021/09/21 05:02:20;;;;;;;6.75;5.72;;;12.10;99.90;;;;;;4976682;28;20181;-75
2021/09/21 05:04:45;;;;;;;12.02;6.60;;;12.00;99.90;;;;;;4976210;28;20174;-76
2021/09/21 05:07:11;;;;;;;6.95;6.25;;;12.00;99.90;;;;;;4976107;28;20614;-75
2021/09/21 05:09:37;;;;;;;11.20;6.13;;;11.90;99.90;;;;;;4976211;28;20261;-74
2021/09/21 05:12:03;;;;;;;10.45;6.75;;;12.10;99.90;;;;;;4975668;28;20264;-74
2021/09/21 05:14:29;;;;;;;11.15;7.03;;;12.10;99.90;;;;;;4975548;28;20181;-77
2021/09/21 05:16:55;;;;;;;7.85;5.90;;;12.00;99.90;;;;;;4975416;28;20170;-75
2021/09/21 05:19:21;;;;;;;16.42;5.88;;;11.70;99.90;;;;;;4975525;28;20173;-75
2021/09/21 05:21:46;;;;;;;8.60;7.32;;;11.50;99.90;;;;;;4975454;28;20202;-76
2021/09/21 05:24:12;;;;;;;15.55;5.80;;;11.60;99.90;;;;;;4975251;28;20181;-76
2021/09/21 05:26:37;;;;;;;6.78;6.07;;;11.60;99.90;;;;;;4975238;28;20162;-76
2021/09/21 05:29:04;;;;;;;7.28;5.93;;;11.50;99.90;;;;;;4974078;28;20178;-75
2021/09/21 05:31:30;;;;;;;6.63;6.03;;;11.60;99.90;;;;;;4973735;28;20201;-75
2021/09/21 05:33:56;;;;;;;10.43;7.53;;;11.70;99.90;;;;;;4975075;28;20170;-76
2021/09/21 05:36:21;;;;;;;9.07;6.05;;;11.70;99.90;;;;;;4974678;28;20221;-75
2021/09/21 05:38:47;;;;;;;8.13;5.90;;;12.00;99.90;;;;;;4974959;28;20623;-77
2021/09/21 05:41:13;;;;;;;7.95;6.40;;;12.00;99.90;;;;;;4974533;28;20868;-75
2021/09/21 05:43:39;;;;;;;9.18;6.75;;;11.80;99.90;;;;;;4975109;28;20196;-76
2021/09/21 05:46:06;;;;;;;12.35;6.75;;;12.00;99.90;;;;;;4975123;28;20176;-75
2021/09/21 05:48:32;;;;;;;12.07;6.93;;;12.00;99.90;;;;;;4976055;28;20165;-75
2021/09/21 05:50:57;;;;;;;9.57;7.07;;;12.30;99.90;;;;;;4974671;28;20596;-76
2021/09/21 05:53:23;;;;;;;14.15;6.55;;;12.30;99.90;;;;;;4974195;28;20208;-77
2021/09/21 05:55:49;;;;;;;9.95;7.63;;;12.30;99.90;;;;;;4974242;28;20209;-76
2021/09/21 05:58:15;;;;;;;8.02;7.00;;;12.20;99.90;;;;;;4974941;28;20539;-76
2021/09/21 06:00:41;;;;;;;8.38;6.35;;;12.10;99.90;;;;;;4974420;28;20198;-76
2021/09/21 06:03:06;;;;;;;12.40;7.00;;;12.00;99.90;;;;;;4974711;28;20225;-76
2021/09/21 06:05:32;;;;;;;14.02;6.80;;;12.10;99.90;;;;;;4974306;28;20564;-75
2021/09/21 06:07:58;;;;;;;14.85;6.25;;;12.00;99.90;;;;;;4974275;28;20166;-77
2021/09/21 06:10:24;;;;;;;8.77;6.68;;;12.10;99.90;;;;;;4974014;28;20196;-75
2021/09/21 06:12:51;;;;;;;11.32;6.75;;;12.20;99.90;;;;;;4972667;28;20229;-76
2021/09/21 06:15:19;;;;;;;10.90;6.63;;;12.00;99.90;;;;;;4973284;28;20213;-75
2021/09/21 06:17:46;;;;;;;7.57;6.60;;;11.70;99.90;;;;;;4974055;28;20502;-75
2021/09/21 06:20:13;;;;;;;17.50;7.05;;;11.70;99.90;;;;;;4974221;28;20575;-75
2021/09/21 06:22:41;;;;;;;11.55;7.18;;;11.70;99.90;;;;;;4973394;28;20777;-76
2021/09/21 06:25:09;;;;;;;8.32;6.70;;;11.70;99.90;;;;;;4973722;28;20256;-75
2021/09/21 06:27:35;;;;;;;7.90;7.07;;;11.70;99.90;;;;;;4973751;28;20674;-74
2021/09/21 06:30:03;;;;;;;10.80;6.43;;;12.10;99.90;;;;;;4973544;28;20258;-75
2021/09/21 06:32:29;;;;;;;14.48;6.70;;;12.00;99.90;;;;;;4973930;28;20690;-74
2021/09/21 06:34:54;;;;;;;8.05;7.00;;;11.90;99.90;;;;;;4973862;28;20186;-75
2021/09/21 06:37:20;;;;;;;8.27;6.45;;;12.00;99.90;;;;;;4974264;28;20647;-76
2021/09/21 06:39:46;;;;;;;8.70;6.65;;;12.10;99.90;;;;;;4974852;28;20205;-76
2021/09/21 06:42:11;;;;;;;10.90;6.90;;;12.40;99.90;;;;;;4973677;28;20245;-77
2021/09/21 06:44:37;;;;;;;15.77;6.95;;;12.30;99.90;;;;;;4974010;28;20170;-74
2021/09/21 06:47:03;;;;;;;7.53;6.82;;;12.30;99.90;;;;;;4973448;28;20174;-75
2021/09/21 06:49:30;;;;;;;11.18;6.78;;;12.50;99.90;;;;;;4973540;28;20233;-75
2021/09/21 06:51:56;;;;;;;10.60;7.05;;;12.50;99.90;;;;;;4973448;28;20178;-75
2021/09/21 06:54:22;;;;;;;16.02;8.23;;;12.60;99.90;;;;;;4973078;28;20197;-75
2021/09/21 06:56:48;;;;;;;9.88;7.05;;;12.80;99.90;;;;;;4965889;28;20657;-75
2021/09/21 06:59:13;;;;;;;9.20;6.57;;;12.90;99.90;;;;;;4973362;28;20614;-76
2021/09/21 07:01:39;;;;;;;8.38;6.53;;;12.70;99.90;;;;;;4973797;28;20224;-75
2021/09/21 07:04:04;;;;;;;11.20;7.20;;;12.60;99.90;;;;;;4973640;28;20573;-76
2021/09/21 07:06:30;;;;;;;9.02;7.53;;;12.40;99.90;;;;;;4974029;28;20721;-76
2021/09/21 07:08:56;;;;;;;12.10;7.20;;;12.40;99.90;;;;;;4972204;28;20178;-76
2021/09/21 07:11:21;;;;;;;7.30;6.45;;;12.50;99.90;;;;;;4968789;28;20252;-77
2021/09/21 07:13:48;;;;;;;7.45;6.75;;;12.30;99.90;;;;;;4980825;28;20190;-76
2021/09/21 07:16:14;;;;;;;10.82;6.78;;;12.30;99.90;;;;;;4985183;28;20236;-77
2021/09/21 07:18:39;;;;;;;7.20;6.22;;;12.50;99.90;;;;;;4981368;28;20178;-77
2021/09/21 07:21:06;;;;;;;13.88;7.07;;;12.60;99.90;;;;;;4990563;28;20190;-75
2021/09/21 07:23:33;;;;;;;8.13;7.30;;;12.70;99.90;;;;;;4990741;28;20166;-76
2021/09/21 07:25:59;;;;;;;17.88;7.43;;;12.80;99.90;;;;;;4990093;28;20178;-76
2021/09/21 07:28:26;;;;;;;8.75;7.00;;;13.00;99.90;;;;;;4982151;28;20458;-75
2021/09/21 07:30:52;;;;;;;9.23;6.95;;;13.10;99.90;;;;;;4977790;28;20204;-75
2021/09/21 07:33:18;;;;;;;7.85;6.88;;;13.00;99.90;;;;;;4976369;28;20182;-76
2021/09/21 07:35:45;;;;;;;9.70;7.13;;;13.10;99.90;;;;;;4971695;28;20213;-77
2021/09/21 07:38:12;;;;;;;16.13;7.35;;;13.10;99.90;;;;;;4974983;28;20174;-74
2021/09/21 07:40:38;;;;;;;8.60;7.20;;;13.40;99.90;;;;;;4965265;28;20201;-76
2021/09/21 07:43:05;;;;;;;10.45;8.07;;;13.50;99.90;;;;;;4955612;28;20178;-76
2021/09/21 07:45:31;;;;;;;16.48;7.75;;;13.50;99.90;;;;;;4972620;28;20179;-77
2021/09/21 07:47:57;;;;;;;9.63;6.78;;;13.40;99.90;;;;;;4976117;28;20170;-74
2021/09/21 07:50:25;;;;;;;14.93;8.05;;;13.50;99.90;;;;;;4975079;28;20177;-76
2021/09/21 07:52:51;;;;;;;11.43;9.00;;;13.60;99.90;;;;;;4976434;28;20174;-74
2021/09/21 07:55:17;;;;;;;10.90;7.22;;;13.70;99.90;;;;;;4976232;28;20213;-76
2021/09/21 07:57:43;;;;;;;13.55;7.70;;;13.90;99.90;;;;;;4976261;28;20190;-76
2021/09/21 08:00:11;;;;;;;12.52;7.85;;;13.90;99.90;;;;;;4975209;28;20181;-74
2021/09/21 08:02:37;;;;;;;10.15;8.18;;;14.00;99.90;;;;;;4976281;28;20170;-80
2021/09/21 08:05:03;;;;;;;17.42;9.02;;;13.90;99.90;;;;;;4975479;28;20197;-75
2021/09/21 08:07:29;;;;;;;11.05;9.43;;;14.00;99.90;;;;;;4975523;28;20178;-75
2021/09/21 08:09:59;;;;;;;15.38;10.20;;;14.30;99.90;;;;;;4975578;28;20261;-75
2021/09/21 08:12:27;;;;;;;10.55;9.35;;;14.30;99.90;;;;;;4975503;28;20198;-74
2021/09/21 08:14:53;;;;;;;15.63;9.85;;;14.20;99.90;;;;;;4975905;28;20728;-75
2021/09/21 08:17:22;;;;;;;11.88;10.05;;;14.40;99.90;;;;;;4974884;28;20185;-74
2021/09/21 08:19:51;;;;;;;14.45;9.68;;;14.50;99.90;;;;;;4975875;28;20253;-75
2021/09/21 08:22:17;;;;;;;19.80;9.80;;;14.60;99.90;;;;;;4975806;28;20196;-75
2021/09/21 08:24:44;;;;;;;13.73;10.23;;;14.70;99.90;;;;;;4976102;28;20174;-74
2021/09/21 08:27:09;;;;;;;11.45;9.20;;;14.90;99.90;;;;;;4975305;28;20538;-80
2021/09/21 08:29:35;;;;;;;16.60;9.73;;;14.90;99.90;;;;;;4971168;28;20179;-75
2021/09/21 08:32:01;;;;;;;22.13;11.52;;;15.00;99.90;;;;;;4967630;28;20658;-75
2021/09/21 08:34:27;;;;;;;16.13;11.13;;;15.20;99.90;;;;;;4969587;28;20185;-75
2021/09/21 08:36:53;;;;;;;17.13;10.95;;;15.20;99.90;;;;;;4971503;28;20541;-75
2021/09/21 08:39:19;;;;;;;18.25;10.23;;;15.30;99.90;;;;;;4974019;28;20177;-75
2021/09/21 08:41:46;;;;;;;12.77;10.25;;;15.30;99.90;;;;;;4974661;28;20186;-76
2021/09/21 08:44:13;;;;;;;12.43;9.02;;;15.40;99.90;;;;;;4972646;28;20170;-75
2021/09/21 08:46:39;;;;;;;13.27;10.55;;;15.50;99.90;;;;;;4965398;28;20178;-76
2021/09/21 08:49:05;;;;;;;15.70;10.32;;;15.60;99.90;;;;;;4973189;28;20645;-77
2021/09/21 08:51:30;;;;;;;14.50;10.40;;;15.60;99.90;;;;;;4973734;28;20301;-77
2021/09/21 08:53:56;;;;;;;13.45;10.63;;;15.70;99.90;;;;;;4974764;28;20178;-78
2021/09/21 08:56:22;;;;;;;13.48;10.50;;;15.90;99.90;;;;;;4962737;28;20213;-78
2021/09/21 08:59:04;;;;;;;12.05;10.75;;;16.00;99.90;;;;;;4974276;28;20193;-77
2021/09/21 09:01:39;;;;;;;18.88;10.68;;;16.10;99.90;;;;;;4974104;28;20224;-74
2021/09/21 09:04:05;;;;;;;25.15;11.52;;;16.30;99.90;;;;;;4954604;28;20178;-76
2021/09/21 09:07:00;;;;;;;21.50;10.60;;;16.20;99.90;;;;;;4961661;28;20177;-77
2021/09/21 09:09:31;;;;;;;15.88;10.48;;;16.20;99.90;;;;;;4972152;28;20178;-77
2021/09/21 09:12:00;;;;;;;17.38;10.07;;;16.40;99.90;;;;;;4974162;28;20182;-77
2021/09/21 09:14:29;;;;;;;16.40;10.88;;;16.50;99.90;;;;;;4974945;28;20212;-76
2021/09/21 09:17:06;;;;;;;16.45;11.00;;;16.60;99.90;;;;;;4974473;28;20277;-76
2021/09/21 09:19:34;;;;;;;13.25;11.05;;;16.70;99.90;;;;;;4972866;28;20161;-75
2021/09/21 09:22:09;;;;;;;14.30;10.30;;;16.60;99.90;;;;;;4974608;28;20278;-76
2021/09/21 09:25:06;;;;;;;11.68;9.68;;;16.50;99.90;;;;;;4974751;28;20166;-76
2021/09/21 09:27:47;;;;;;;10.02;8.90;;;16.60;99.90;;;;;;4959746;28;20186;-77
2021/09/21 09:30:23;;;;;;;24.70;9.70;;;16.70;99.90;;;;;;4974968;28;20529;-75
2021/09/21 09:32:51;;;;;;;16.20;10.80;;;16.80;99.90;;;;;;4975046;28;20633;-76
2021/09/21 09:35:35;;;;;;;15.30;10.00;;;16.90;99.90;;;;;;4974144;28;20201;-75
2021/09/21 09:38:08;;;;;;;14.48;10.25;;;17.00;99.90;;;;;;4974634;28;20178;-75
2021/09/21 09:40:43;;;;;;;29.77;9.80;;;17.00;99.90;;;;;;4974569;28;20276;-76
2021/09/21 09:43:10;;;;;;;13.18;8.38;;;17.10;99.90;;;;;;4973848;28;20701;-76
2021/09/21 09:45:39;;;;;;;11.20;7.82;;;16.90;99.90;;;;;;4974242;28;20193;-77
2021/09/21 09:48:06;;;;;;;9.00;8.10;;;16.90;99.90;;;;;;4974129;28;20170;-77
2021/09/21 09:50:35;;;;;;;9.02;8.13;;;17.00;99.90;;;;;;4972824;28;20202;-77
2021/09/21 09:53:04;;;;;;;17.80;8.88;;;17.10;99.90;;;;;;4973127;28;20538;-76
2021/09/21 09:55:33;;;;;;;8.85;6.47;;;17.10;99.90;;;;;;4973841;28;20662;-77
2021/09/21 09:58:00;;;;;;;7.70;6.93;;;17.20;99.90;;;;;;4974243;28;20240;-76
2021/09/21 10:00:26;;;;;;;8.38;7.63;;;17.30;99.90;;;;;;4974525;28;20213;-76
2021/09/21 10:02:52;;;;;;;7.65;6.85;;;17.40;99.90;;;;;;4973852;28;20166;-77
2021/09/21 10:05:18;;;;;;;10.40;7.68;;;17.50;99.90;;;;;;4974307;28;20177;-76
2021/09/21 10:07:45;;;;;;;10.50;7.82;;;17.60;99.90;;;;;;4974098;28;20177;-76
2021/09/21 10:10:10;;;;;;;13.80;7.00;;;17.70;99.90;;;;;;4973901;28;20622;-75
2021/09/21 10:12:37;;;;;;;18.08;6.30;;;18.00;99.90;;;;;;4972835;28;20180;-75
2021/09/21 10:15:05;;;;;;;6.22;5.15;;;18.00;99.90;;;;;;4973991;28;20630;-75
2021/09/21 10:17:33;;;;;;;6.40;5.47;;;18.00;99.90;;;;;;4972954;28;20212;-76
2021/09/21 10:19:59;;;;;;;6.13;5.50;;;18.10;99.90;;;;;;4974264;28;20166;-76
2021/09/21 10:22:31;;;;;;;6.68;5.20;;;17.90;99.90;;;;;;4973979;28;20522;-75
2021/09/21 10:25:05;;;;;;;7.95;5.05;;;17.80;99.90;;;;;;4972925;28;20261;-76
2021/09/21 10:27:35;;;;;;;7.05;6.38;;;17.80;99.90;;;;;;4974256;28;20173;-76
2021/09/21 10:30:04;;;;;;;6.20;5.70;;;17.80;99.90;;;;;;4974150;28;20180;-77
2021/09/21 10:32:30;;;;;;;10.55;6.53;;;17.80;99.90;;;;;;4973899;28;20933;-76
2021/09/21 10:34:58;;;;;;;7.60;6.88;;;17.70;99.90;;;;;;4974091;28;20193;-76
2021/09/21 10:37:30;;;;;;;7.85;6.45;;;17.70;99.90;;;;;;4973709;28;20252;-76
2021/09/21 10:40:01;;;;;;;7.78;6.10;;;17.60;99.90;;;;;;4974002;28;20188;-76
2021/09/21 10:42:27;;;;;;;16.40;6.72;;;17.60;99.90;;;;;;4973704;28;20229;-76
2021/09/21 10:44:59;;;;;;;14.30;6.40;;;17.70;99.90;;;;;;4973461;28;20173;-76
2021/09/21 10:47:39;;;;;;;5.88;5.30;;;17.90;99.90;;;;;;4973508;28;20166;-76
2021/09/21 10:50:22;;;;;;;6.18;5.57;;;18.10;99.90;;;;;;4973647;28;20173;-76
2021/09/21 10:52:48;;;;;;;6.38;5.75;;;17.90;99.90;;;;;;4973873;28;20240;-77
2021/09/21 10:55:17;;;;;;;6.65;5.80;;;17.90;99.90;;;;;;4972633;28;20304;-76
2021/09/21 10:57:47;;;;;;;13.82;5.82;;;18.10;99.90;;;;;;4973565;28;20259;-76
2021/09/21 11:00:20;;;;;;;6.63;6.03;;;18.00;99.90;;;;;;4973516;28;20178;-76
2021/09/21 11:02:54;;;;;;;6.13;5.63;;;18.10;99.90;;;;;;4973589;28;20162;-76
2021/09/21 11:05:26;;;;;;;6.95;5.53;;;18.20;99.90;;;;;;4971856;28;20652;-76
2021/09/21 11:07:56;;;;;;;6.53;5.60;;;18.30;99.90;;;;;;4973419;28;20242;-76
2021/09/21 11:10:28;;;;;;;7.20;5.30;;;18.10;99.90;;;;;;4972991;28;20174;-75
2021/09/21 11:12:53;;;;;;;7.57;5.78;;;17.90;99.90;;;;;;4971915;28;20173;-75
2021/09/21 11:15:23;;;;;;;6.25;5.70;;;18.00;99.90;;;;;;4973534;28;20224;-75
2021/09/21 11:17:52;;;;;;;8.18;5.32;;;17.80;99.90;;;;;;4973437;28;20170;-76
2021/09/21 11:20:18;;;;;;;10.13;5.75;;;18.00;99.90;;;;;;4973366;28;20237;-75
2021/09/21 11:22:50;;;;;;;9.55;5.47;;;18.00;99.90;;;;;;4973113;28;20297;-75
2021/09/21 11:25:15;;;;;;;8.13;5.47;;;18.10;99.90;;;;;;4973259;28;20608;-76
2021/09/21 11:27:42;;;;;;;6.43;5.80;;;18.10;99.90;;;;;;4973409;28;20253;-75
2021/09/21 11:30:13;;;;;;;13.32;4.93;;;18.00;99.90;;;;;;4973020;28;20245;-74
2021/09/21 11:32:40;;;;;;;8.38;5.57;;;18.00;99.90;;;;;;4972944;28;20169;-74
2021/09/21 11:35:10;;;;;;;11.27;5.35;;;18.20;99.90;;;;;;4972912;28;20194;-75
2021/09/21 11:37:36;;;;;;;11.10;5.10;;;18.30;99.90;;;;;;4972886;28;20178;-75
2021/09/21 11:40:03;;;;;;;11.13;5.03;;;18.40;99.90;;;;;;4971832;28;20276;-75
2021/09/21 11:42:32;;;;;;;5.93;5.18;;;18.50;99.90;;;;;;4972982;28;20273;-74
2021/09/21 11:45:05;;;;;;;12.27;6.57;;;18.50;99.90;;;;;;4973270;28;20257;-74
2021/09/21 11:47:42;;;;;;;7.45;5.03;;;18.50;99.90;;;;;;4973168;28;20362;-74
2021/09/21 11:50:14;;;;;;;5.47;4.97;;;18.60;99.90;;;;;;4973094;28;20177;-75
2021/09/21 11:52:41;;;;;;;4.93;3.92;;;18.50;99.90;;;;;;4972461;28;20509;-75
2021/09/21 11:55:15;;;;;;;3.55;3.00;;;18.30;99.90;;;;;;4973072;28;20205;-75
2021/09/21 11:57:42;;;;;;;6.22;4.13;;;18.50;99.90;;;;;;4973266;28;20195;-75
2021/09/21 12:00:28;;;;;;;7.25;4.00;;;18.30;99.90;;;;;;4973528;28;20162;-75
2021/09/21 12:02:59;;;;;;;5.40;4.90;;;18.30;99.90;;;;;;4973153;28;20170;-75
2021/09/21 12:05:27;;;;;;;8.48;4.72;;;18.40;99.90;;;;;;4972271;28;20186;-76
2021/09/21 13:13:01;;;;;;;4.30;3.90;;;18.20;99.90;;;;;;5111449;27;20552;-84
2021/09/21 13:15:29;;;;;;;8.73;2.90;;;19.50;99.90;;;;;;5110203;28;20544;-89
2021/09/21 13:17:55;;;;;;;3.75;3.30;;;19.30;99.90;;;;;;5112082;28;20173;-88
2021/09/21 13:20:22;;;;;;;3.70;3.40;;;19.30;99.90;;;;;;5110598;28;20223;-84
2021/09/21 13:22:48;;;;;;;4.15;3.85;;;19.30;99.90;;;;;;5109462;28;20235;-79
2021/09/21 13:25:14;;;;;;;4.15;3.75;;;19.20;99.90;;;;;;5109290;28;20620;-79
2021/09/21 13:27:39;;;;;;;5.80;3.53;;;19.30;99.90;;;;;;5108843;28;20269;-78
2021/09/21 13:30:05;;;;;;;4.95;4.35;;;19.30;99.90;;;;;;5109556;28;20180;-78
2021/09/21 13:32:31;;;;;;;4.45;3.67;;;19.40;99.90;;;;;;5110227;28;20193;-91
2021/09/21 13:34:57;;;;;;;7.50;3.40;;;19.40;99.90;;;;;;5109290;28;20205;-85
2021/09/21 13:37:22;;;;;;;5.22;3.60;;;19.50;99.90;;;;;;5108691;28;20169;-82
2021/09/21 13:39:48;;;;;;;4.70;4.30;;;19.60;99.90;;;;;;5109603;28;20169;-82
2021/09/21 13:42:14;;;;;;;4.30;3.35;;;19.80;99.90;;;;;;5111898;28;20175;-87
2021/09/21 13:44:39;;;;;;;4.68;3.30;;;19.80;99.90;;;;;;5109597;28;20196;-87
2021/09/21 13:47:05;;;;;;;4.40;3.75;;;19.90;99.90;;;;;;5110291;28;20288;-87
2021/09/21 13:49:31;;;;;;;9.30;3.78;;;19.90;99.90;;;;;;5109870;28;20212;-83
2021/09/21 13:51:57;;;;;;;5.20;2.90;;;19.80;99.90;;;;;;5111205;28;20179;-87
2021/09/21 13:54:24;;;;;;;4.00;3.70;;;19.80;99.90;;;;;;5110653;28;20193;-88
2021/09/21 13:56:50;;;;;;;3.42;2.92;;;20.10;99.90;;;;;;5110610;28;20173;-84
2021/09/21 13:59:17;;;;;;;3.67;2.42;;;20.10;99.90;;;;;;5111130;28;20193;-87
2021/09/21 14:01:42;;;;;;;11.95;3.30;;;20.20;99.90;;;;;;5110907;28;20648;-87